WUK7RW EGGW-LEBB
Flight info
| Callsign | WUK7RW |
|---|---|
| Flight time | N/A |
| Altitude | 31000 |
| Route | RODNI N27 ICTAM Q63 CPT Y321 PEPIS Q41 SAM M195 MARUK N621 LELNA/N0444F330 DCT NOVAN DCT NENEM N867 MAPAX |
| Aircraft | A321/M-SDE3FGHIRWY/LB1 |
Departure
| Time | N/A |
|---|---|
| Airport | London Luton Airport (EGGW) |
Arrival
| Time | 2026-05-05 20:47 |
|---|---|
| Airport | Bilbao Airport (LEBB) |
| Time | Latitude | Longitude | Altitude | Speed | Heading |
|---|---|---|---|---|---|
| 2026-05-05 20:27 | 44.15465 | -3.17407 | 27177 ft | 416 kts | 171° |
| 2026-05-05 20:27 | 44.12609 | -3.16742 | 26700 ft | 413 kts | 171° |
| 2026-05-05 20:27 | 44.09785 | -3.16086 | 26247 ft | 410 kts | 171° |
| 2026-05-05 20:27 | 44.06975 | -3.15436 | 25810 ft | 408 kts | 171° |
| 2026-05-05 20:28 | 44.04186 | -3.14782 | 25389 ft | 405 kts | 171° |
| 2026-05-05 20:28 | 44.01426 | -3.14051 | 24982 ft | 402 kts | 169° |
| 2026-05-05 20:28 | 43.98728 | -3.13267 | 24593 ft | 400 kts | 169° |
| 2026-05-05 20:28 | 43.96021 | -3.12448 | 24191 ft | 398 kts | 168° |
| 2026-05-05 20:29 | 43.93297 | -3.11621 | 23597 ft | 401 kts | 169° |
| 2026-05-05 20:29 | 43.90553 | -3.10802 | 22904 ft | 405 kts | 169° |
| 2026-05-05 20:29 | 43.87786 | -3.09990 | 22212 ft | 407 kts | 169° |
| 2026-05-05 20:29 | 43.84998 | -3.09181 | 21537 ft | 410 kts | 169° |
| 2026-05-05 20:30 | 43.82202 | -3.08377 | 20877 ft | 411 kts | 169° |
| 2026-05-05 20:30 | 43.79391 | -3.07571 | 20230 ft | 413 kts | 169° |
| 2026-05-05 20:30 | 43.76570 | -3.06761 | 19602 ft | 413 kts | 169° |
| 2026-05-05 20:30 | 43.73781 | -3.05962 | 18993 ft | 414 kts | 169° |
| 2026-05-05 20:31 | 43.70976 | -3.05047 | 18379 ft | 415 kts | 161° |
| 2026-05-05 20:31 | 43.68451 | -3.03129 | 17701 ft | 417 kts | 141° |
| 2026-05-05 20:31 | 43.66553 | -3.00133 | 17029 ft | 416 kts | 120° |
| 2026-05-05 20:31 | 43.65525 | -2.96439 | 16374 ft | 413 kts | 99° |
| 2026-05-05 20:32 | 43.65347 | -2.92504 | 15730 ft | 410 kts | 89° |
| 2026-05-05 20:32 | 43.65218 | -2.88574 | 15095 ft | 410 kts | 93° |
| 2026-05-05 20:32 | 43.64883 | -2.84667 | 14476 ft | 409 kts | 98° |
| 2026-05-05 20:32 | 43.64316 | -2.80827 | 13866 ft | 408 kts | 103° |
| 2026-05-05 20:33 | 43.63507 | -2.77070 | 13201 ft | 407 kts | 109° |
| 2026-05-05 20:33 | 43.62476 | -2.73444 | 12528 ft | 405 kts | 113° |
| 2026-05-05 20:33 | 43.61251 | -2.69962 | 11890 ft | 403 kts | 118° |
| 2026-05-05 20:33 | 43.59844 | -2.66636 | 11246 ft | 400 kts | 122° |
| 2026-05-05 20:34 | 43.58256 | -2.63492 | 10622 ft | 397 kts | 127° |
| 2026-05-05 20:34 | 43.56503 | -2.60570 | 10010 ft | 394 kts | 132° |
| 2026-05-05 20:34 | 43.54609 | -2.57875 | 9353 ft | 390 kts | 137° |
| 2026-05-05 20:34 | 43.52585 | -2.55410 | 8695 ft | 387 kts | 141° |
| 2026-05-05 20:35 | 43.50463 | -2.53206 | 8050 ft | 384 kts | 146° |
| 2026-05-05 20:35 | 43.48226 | -2.51219 | 7415 ft | 380 kts | 150° |
| 2026-05-05 20:35 | 43.45912 | -2.49491 | 6791 ft | 376 kts | 155° |
| 2026-05-05 20:35 | 43.43537 | -2.48030 | 6217 ft | 371 kts | 160° |
| 2026-05-05 20:36 | 43.41157 | -2.46860 | 6027 ft | 354 kts | 164° |
| 2026-05-05 20:36 | 43.38856 | -2.45969 | 6035 ft | 333 kts | 168° |
| 2026-05-05 20:36 | 43.36652 | -2.45326 | 6042 ft | 314 kts | 172° |
| 2026-05-05 20:36 | 43.34547 | -2.44899 | 6029 ft | 297 kts | 175° |
| 2026-05-05 20:37 | 43.32539 | -2.44651 | 6033 ft | 283 kts | 179° |
| 2026-05-05 20:37 | 43.31245 | -2.44577 | 6047 ft | 281 kts | 182° |
| 2026-05-05 20:37 | 43.28633 | -2.44637 | 6032 ft | 280 kts | 186° |
| 2026-05-05 20:37 | 43.26692 | -2.44858 | 6036 ft | 279 kts | 189° |
| 2026-05-05 20:38 | 43.24771 | -2.45226 | 6048 ft | 278 kts | 193° |
| 2026-05-05 20:38 | 43.22869 | -2.45732 | 6035 ft | 278 kts | 196° |
| 2026-05-05 20:38 | 43.21097 | -2.46685 | 6043 ft | 272 kts | 216° |
| 2026-05-05 20:38 | 43.19679 | -2.48363 | 6036 ft | 267 kts | 235° |
| 2026-05-05 20:39 | 43.18738 | -2.50519 | 6044 ft | 263 kts | 247° |
| 2026-05-05 20:39 | 43.17691 | -2.52577 | 6036 ft | 266 kts | 225° |
| 2026-05-05 20:39 | 43.16353 | -2.54182 | 5980 ft | 252 kts | 233° |
| 2026-05-05 20:39 | 43.15648 | -2.56233 | 5821 ft | 232 kts | 269° |
| 2026-05-05 20:40 | 43.16012 | -2.58249 | 5676 ft | 214 kts | 304° |
| 2026-05-05 20:40 | 43.17075 | -2.59577 | 5489 ft | 203 kts | 328° |
| 2026-05-05 20:40 | 43.18192 | -2.60588 | 5353 ft | 183 kts | 320° |
| 2026-05-05 20:40 | 43.19073 | -2.61752 | 5214 ft | 168 kts | 310° |
| 2026-05-05 20:41 | 43.19731 | -2.62986 | 5099 ft | 151 kts | 302° |
| 2026-05-05 20:41 | 43.20215 | -2.64217 | 4765 ft | 146 kts | 298° |
| 2026-05-05 20:41 | 43.20676 | -2.65462 | 4644 ft | 148 kts | 298° |
| 2026-05-05 20:41 | 43.21139 | -2.66714 | 4437 ft | 147 kts | 298° |
| 2026-05-05 20:42 | 43.21600 | -2.67960 | 4232 ft | 147 kts | 297° |
| 2026-05-05 20:42 | 43.22060 | -2.69204 | 4018 ft | 146 kts | 297° |
| 2026-05-05 20:42 | 43.22512 | -2.70426 | 3796 ft | 145 kts | 297° |
| 2026-05-05 20:42 | 43.22968 | -2.71662 | 3574 ft | 144 kts | 297° |
| 2026-05-05 20:43 | 43.23421 | -2.72889 | 3358 ft | 144 kts | 296° |
| 2026-05-05 20:43 | 43.23874 | -2.74113 | 3139 ft | 144 kts | 296° |
| 2026-05-05 20:43 | 43.24326 | -2.75339 | 2917 ft | 144 kts | 296° |
| 2026-05-05 20:43 | 43.24776 | -2.76558 | 2691 ft | 143 kts | 296° |
| 2026-05-05 20:44 | 43.25226 | -2.77779 | 2478 ft | 143 kts | 296° |
| 2026-05-05 20:44 | 43.25523 | -2.78584 | 2323 ft | 143 kts | 296° |
| 2026-05-05 20:44 | 43.26030 | -2.79960 | 2071 ft | 142 kts | 296° |
| 2026-05-05 20:44 | 43.26475 | -2.81170 | 1855 ft | 141 kts | 296° |
| 2026-05-05 20:45 | 43.27372 | -2.83606 | 1388 ft | 143 kts | 296° |
| 2026-05-05 20:45 | 43.27821 | -2.84827 | 1162 ft | 144 kts | 296° |
| 2026-05-05 20:45 | 43.28273 | -2.86058 | 937 ft | 144 kts | 296° |
| 2026-05-05 20:46 | 43.28725 | -2.87288 | 707 ft | 144 kts | 296° |
| 2026-05-05 20:46 | 43.29176 | -2.88516 | 491 ft | 145 kts | 296° |
| 2026-05-05 20:46 | 43.29475 | -2.89330 | 352 ft | 143 kts | 296° |
| 2026-05-05 20:46 | 43.29917 | -2.90545 | 158 ft | 140 kts | 296° |
| 2026-05-05 20:47 | 43.30318 | -2.91621 | 131 ft | 106 kts | 298° |
| 2026-05-05 20:47 | 43.30531 | -2.92205 | 125 ft | 37 kts | 296° |
| 2026-05-05 20:47 | 43.30625 | -2.92429 | 129 ft | 19 kts | 320° |
| 2026-05-05 20:47 | 43.30731 | -2.92493 | 127 ft | 11 kts | 346° |
| 2026-05-05 20:48 | 43.30798 | -2.92468 | 123 ft | 10 kts | 72° |
| 2026-05-05 20:48 | 43.30777 | -2.92373 | 124 ft | 11 kts | 117° |
| 2026-05-05 20:48 | 43.30743 | -2.92279 | 124 ft | 12 kts | 115° |
| 2026-05-05 20:48 | 43.30707 | -2.92176 | 123 ft | 12 kts | 116° |
| 2026-05-05 20:49 | 43.30667 | -2.92066 | 127 ft | 13 kts | 117° |
| 2026-05-05 20:49 | 43.30614 | -2.91928 | 126 ft | 20 kts | 118° |
| 2026-05-05 20:49 | 43.30547 | -2.91752 | 126 ft | 18 kts | 117° |
| 2026-05-05 20:49 | 43.30481 | -2.91572 | 128 ft | 25 kts | 116° |
| 2026-05-05 20:50 | 43.30401 | -2.91357 | 128 ft | 21 kts | 117° |
| 2026-05-05 20:50 | 43.30335 | -2.91176 | 128 ft | 12 kts | 118° |
| 2026-05-05 20:50 | 43.30308 | -2.91062 | 127 ft | 12 kts | 78° |
| 2026-05-05 20:50 | 43.30372 | -2.90994 | 129 ft | 12 kts | 27° |
| 2026-05-05 20:51 | 43.30400 | -2.90893 | 131 ft | 12 kts | 95° |
| 2026-05-05 20:51 | 43.30392 | -2.90779 | 132 ft | 13 kts | 105° |
| 2026-05-05 20:51 | 43.30356 | -2.90667 | 132 ft | 13 kts | 116° |
| 2026-05-05 20:51 | 43.30309 | -2.90591 | 133 ft | 5 kts | 141° |
| 2026-05-05 20:52 | 43.30305 | -2.90563 | 133 ft | 1 kts | 68° |
| 2026-05-05 20:52 | 43.30309 | -2.90561 | 133 ft | 0 kts | 36° |
| 2026-05-05 20:52 | 43.30314 | -2.90559 | 133 ft | 1 kts | 20° |
| 2026-05-05 20:52 | 43.30325 | -2.90554 | 133 ft | 3 kts | 21° |
| 2026-05-05 20:53 | 43.30350 | -2.90538 | 132 ft | 5 kts | 25° |
| 2026-05-05 20:53 | 43.30379 | -2.90518 | 132 ft | 0 kts | 27° |